createdAt,value
2022-09-14T00:05:41.656Z,63.71
2022-09-14T00:15:46.444Z,61.78
2022-09-14T00:25:48.273Z,54.31
2022-09-14T00:35:50.023Z,65.79
2022-09-14T00:45:51.900Z,62.87
2022-09-14T00:55:54.501Z,60.86
2022-09-14T01:06:02.376Z,54.18
2022-09-14T01:16:13.363Z,64.39
2022-09-14T01:26:27.262Z,61.69
2022-09-14T01:36:29.105Z,53.54
2022-09-14T01:46:36.058Z,64.79
2022-09-14T01:56:41.687Z,62.72
2022-09-14T02:06:45.022Z,53.76
2022-09-14T02:16:46.853Z,64.77
2022-09-14T02:26:51.543Z,62.28
2022-09-14T02:37:19.699Z,52.93
2022-09-14T02:47:24.848Z,55.13
2022-09-14T02:57:27.252Z,70.64
2022-09-14T03:07:28.918Z,66.43
2022-09-14T03:17:30.573Z,63.12
2022-09-14T03:27:32.342Z,53.83
2022-09-14T03:37:36.955Z,65.18
2022-09-14T03:47:39.353Z,62.99
2022-09-14T03:57:41.228Z,53.46
2022-09-14T04:07:42.901Z,64.79
2022-09-14T04:17:44.703Z,62.11
2022-09-14T04:27:59.033Z,52.56
2022-09-14T04:38:08.239Z,54.69
2022-09-14T04:48:10.006Z,69.61
2022-09-14T04:58:11.781Z,65.10
2022-09-14T05:08:13.579Z,61.59
2022-09-14T05:18:15.324Z,52.20
2022-09-14T05:28:17.161Z,54.68
2022-09-14T05:38:21.025Z,66.71
2022-09-14T05:48:23.642Z,61.99
2022-09-14T05:58:26.543Z,52.46
2022-09-14T06:08:28.595Z,55.45
2022-09-14T06:18:33.390Z,67.22
2022-09-14T06:28:36.691Z,62.59
2022-09-14T06:38:39.316Z,53.28
2022-09-14T06:48:43.891Z,55.40
2022-09-14T06:58:45.760Z,66.80
2022-09-14T07:08:48.180Z,55.08
2022-09-14T07:18:52.807Z,55.28
2022-09-14T07:28:58.141Z,56.52
2022-09-14T07:38:59.880Z,56.86
2022-09-14T07:49:02.650Z,57.51
2022-09-14T07:59:34.432Z,55.84
2022-09-14T08:09:27.924Z,55.01
2022-09-14T08:19:30.407Z,53.65
2022-09-14T08:29:32.359Z,47.05
2022-09-14T08:39:33.998Z,42.99
2022-09-14T08:49:41.854Z,39.05
2022-09-14T08:59:46.872Z,40.43
2022-09-14T09:09:52.939Z,42.31
2022-09-14T09:19:54.676Z,41.98
2022-09-14T09:29:56.461Z,40.37
2022-09-14T09:40:02.410Z,36.08
2022-09-14T09:50:13.833Z,37.31
2022-09-14T10:00:18.846Z,38.17
2022-09-14T10:10:22.030Z,37.01
2022-09-14T10:20:25.013Z,35.56
2022-09-14T10:30:28.874Z,36.71
2022-09-14T10:40:37.725Z,39.35
2022-09-14T10:50:42.536Z,41.64
2022-09-14T11:00:53.828Z,42.09
2022-09-14T11:11:11.190Z,43.24
2022-09-14T11:21:32.406Z,44.84
2022-09-14T11:32:16.981Z,45.61
2022-09-14T11:42:16.186Z,46.76
2022-09-14T11:52:18.102Z,47.29
2022-09-14T12:02:23.193Z,48.52
2022-09-14T12:12:30.395Z,50.12
2022-09-14T12:22:34.272Z,50.04
2022-09-14T12:32:41.085Z,49.80
2022-09-14T12:42:43.232Z,50.60
2022-09-14T12:53:11.649Z,51.27
2022-09-14T13:03:46.682Z,50.88
2022-09-14T13:13:49.429Z,50.34
2022-09-14T13:23:51.537Z,50.66
2022-09-14T13:33:54.917Z,51.61
2022-09-14T13:43:57.965Z,52.26
2022-09-14T13:54:16.707Z,52.80
2022-09-14T14:04:24.129Z,52.66
2022-09-14T14:14:31.042Z,53.37
2022-09-14T14:24:33.690Z,54.51
2022-09-14T14:34:36.615Z,54.96
2022-09-14T14:44:38.458Z,55.32
2022-09-14T14:54:43.098Z,55.15
2022-09-14T15:04:45.326Z,55.45
2022-09-14T15:14:47.117Z,56.20
2022-09-14T15:24:48.780Z,56.45
2022-09-14T15:34:51.090Z,57.89
2022-09-14T15:44:54.928Z,73.78
2022-09-14T15:54:56.697Z,71.02
2022-09-14T16:04:58.867Z,54.45
2022-09-14T16:15:00.651Z,54.11
2022-09-14T16:25:02.365Z,67.33
2022-09-14T16:35:08.168Z,63.99
2022-09-14T16:45:10.477Z,53.44
2022-09-14T16:55:12.375Z,53.57
2022-09-14T17:05:14.789Z,66.31
2022-09-14T17:15:16.822Z,63.96
2022-09-14T17:25:18.754Z,54.74
2022-09-14T17:35:20.803Z,55.74
2022-09-14T17:45:22.986Z,68.60
2022-09-14T17:55:26.502Z,65.90
2022-09-14T18:05:28.732Z,62.95
2022-09-14T18:15:31.143Z,54.28
2022-09-14T18:25:34.095Z,55.16
2022-09-14T18:35:38.107Z,68.60
2022-09-14T18:45:40.015Z,65.88
2022-09-14T18:55:42.299Z,62.00
2022-09-14T19:05:47.807Z,53.03
2022-09-14T19:15:52.254Z,55.02
2022-09-14T19:25:54.893Z,68.38
2022-09-14T19:36:02.217Z,64.82
2022-09-14T19:46:19.210Z,61.76
2022-09-14T19:56:25.698Z,53.02
2022-09-14T20:06:34.330Z,55.27
2022-09-14T20:16:40.757Z,68.81
2022-09-14T20:26:42.621Z,65.54
2022-09-14T20:36:44.626Z,62.29
2022-09-14T20:46:47.214Z,53.05
2022-09-14T20:56:49.140Z,54.92
2022-09-14T21:06:52.963Z,68.66
2022-09-14T21:16:56.916Z,65.11
2022-09-14T21:26:58.698Z,61.49
2022-09-14T21:37:00.469Z,52.91
2022-09-14T21:47:03.143Z,55.14
2022-09-14T21:57:04.983Z,68.54
2022-09-14T22:07:07.087Z,64.73
2022-09-14T22:17:08.825Z,61.63
2022-09-14T22:27:10.807Z,52.83
2022-09-14T22:37:12.551Z,55.41
2022-09-14T22:47:14.260Z,68.14
2022-09-14T22:57:15.983Z,65.16
2022-09-14T23:07:20.228Z,61.32
2022-09-14T23:17:24.221Z,55.19
2022-09-14T23:27:26.504Z,64.75
2022-09-14T23:37:28.255Z,61.60
2022-09-14T23:47:29.948Z,60.74
2022-09-14T23:57:31.666Z,53.89
